Startpagina
METAR-TAF:

METAR-TAF

Vliegvelden :

Haiderabad, India

breedte: 17-27N, lengte: 078-28E, hoogte: 530 m

Actueel weer

Dit bericht is 18 minuten geleden gemaakt, om 12:30 UTC
Wind 5 kt uit het zuidoosten
Temperatuur 26°C
Vochtigheid 70%
Druk 1016 hPa
Zicht: 4000 m
Verspreide wolken op 1500 ft
Gebroken wolken op 10000 ft
Heiigheid

METAR: VOHY 131230Z 13005KT 4000 HZ SCT015 BKN100 26/20 Q1016 NOSIG

Tijdstip: 18:18 (12:48 UTC)


TAF: ontbreekt

Waarnemingen en weersverwachtingen van meer dan 4000 vliegvelden (METAR en TAF).

De beschikbare stations zijn de gele en rode punten op de kaart.

Ga met uw muis naar het station om de naam te zien.

Klik dan om waarnemingen en weersverwachtingen te zien.

kaart wijzigen: klik op de groene knoppen met een zwart kruis om in te zoomen, op de groene knop met een streepje om uit te zoomen of op de groene pijlen voor aangrenzende kaarten.


METAR-TAF: